sensor_id;sensor_type;location;lat;lon;timestamp;pressure;altitude;pressure_sealevel;temperature;humidity
42169;BME280;27838;43.858;25.974;2022-09-27T00:01:07;100071.69;;;22.05;53.76
42169;BME280;27838;43.858;25.974;2022-09-27T00:03:34;100078.78;;;22.05;53.90
42169;BME280;27838;43.858;25.974;2022-09-27T00:06:07;100084.19;;;22.03;53.96
42169;BME280;27838;43.858;25.974;2022-09-27T00:08:34;100077.34;;;21.99;54.07
42169;BME280;27838;43.858;25.974;2022-09-27T00:11:07;100074.84;;;21.96;54.32
42169;BME280;27838;43.858;25.974;2022-09-27T00:13:34;100073.91;;;21.97;54.40
42169;BME280;27838;43.858;25.974;2022-09-27T00:16:02;100080.94;;;21.98;54.87
42169;BME280;27838;43.858;25.974;2022-09-27T00:18:30;100084.44;;;21.99;54.68
42169;BME280;27838;43.858;25.974;2022-09-27T00:21:06;100070.34;;;21.98;54.94
42169;BME280;27838;43.858;25.974;2022-09-27T00:23:34;100058.34;;;21.91;54.68
42169;BME280;27838;43.858;25.974;2022-09-27T00:26:01;100062.56;;;21.95;54.60
42169;BME280;27838;43.858;25.974;2022-09-27T00:28:28;100052.78;;;21.96;54.55
42169;BME280;27838;43.858;25.974;2022-09-27T00:30:58;100046.63;;;21.95;54.18
42169;BME280;27838;43.858;25.974;2022-09-27T00:33:26;100049.38;;;21.94;54.06
42169;BME280;27838;43.858;25.974;2022-09-27T00:35:53;100036.66;;;21.84;54.14
42169;BME280;27838;43.858;25.974;2022-09-27T00:38:20;100035.97;;;21.81;54.78
42169;BME280;27838;43.858;25.974;2022-09-27T00:40:47;100029.03;;;21.78;54.84
42169;BME280;27838;43.858;25.974;2022-09-27T00:43:18;100033.50;;;21.78;54.74
42169;BME280;27838;43.858;25.974;2022-09-27T00:45:58;100042.97;;;21.82;54.92
42169;BME280;27838;43.858;25.974;2022-09-27T00:48:28;100040.06;;;21.86;55.07
42169;BME280;27838;43.858;25.974;2022-09-27T00:51:00;100030.28;;;21.87;54.89
42169;BME280;27838;43.858;25.974;2022-09-27T00:53:35;100016.28;;;21.85;54.98
42169;BME280;27838;43.858;25.974;2022-09-27T00:56:08;100012.94;;;21.81;54.88
42169;BME280;27838;43.858;25.974;2022-09-27T00:58:38;100008.47;;;21.82;54.70
42169;BME280;27838;43.858;25.974;2022-09-27T01:01:08;100009.16;;;21.85;54.50
42169;BME280;27838;43.858;25.974;2022-09-27T01:06:22;99999.22;;;21.89;54.17
42169;BME280;27838;43.858;25.974;2022-09-27T01:08:48;99999.22;;;21.89;54.40
42169;BME280;27838;43.858;25.974;2022-09-27T01:46:02;99998.03;;;21.79;57.21
42169;BME280;27838;43.858;25.974;2022-09-27T01:48:40;100006.19;;;21.76;57.13
42169;BME280;27838;43.858;25.974;2022-09-27T01:51:19;100007.22;;;21.73;57.29
42169;BME280;27838;43.858;25.974;2022-09-27T01:53:50;100016.81;;;21.76;57.45
42169;BME280;27838;43.858;25.974;2022-09-27T01:56:22;100009.88;;;21.73;57.37
42169;BME280;27838;43.858;25.974;2022-09-27T01:58:56;100008.94;;;21.74;57.51
42169;BME280;27838;43.858;25.974;2022-09-27T02:01:27;100012.34;;;21.76;57.49
42169;BME280;27838;43.858;25.974;2022-09-27T02:03:56;100006.97;;;21.78;57.40
42169;BME280;27838;43.858;25.974;2022-09-27T02:06:33;100007.91;;;21.77;57.61
42169;BME280;27838;43.858;25.974;2022-09-27T02:09:12;100000.03;;;21.75;57.36
42169;BME280;27838;43.858;25.974;2022-09-27T02:11:44;100012.34;;;21.76;57.39
42169;BME280;27838;43.858;25.974;2022-09-27T02:14:19;100000.03;;;21.75;57.50
42169;BME280;27838;43.858;25.974;2022-09-27T02:16:51;99991.22;;;21.75;57.64
42169;BME280;27838;43.858;25.974;2022-09-27T02:25:04;99983.19;;;21.76;56.93
42169;BME280;27838;43.858;25.974;2022-09-27T02:27:43;99973.41;;;21.77;56.97
42169;BME280;27838;43.858;25.974;2022-09-27T02:30:14;99962.81;;;21.77;57.11
42169;BME280;27838;43.858;25.974;2022-09-27T02:32:42;99955.03;;;21.74;57.20
42169;BME280;27838;43.858;25.974;2022-09-27T02:35:13;99965.63;;;21.74;56.90
42169;BME280;27838;43.858;25.974;2022-09-27T02:37:41;99963.84;;;21.74;57.18
42169;BME280;27838;43.858;25.974;2022-09-27T02:40:08;99958.56;;;21.74;57.33
42169;BME280;27838;43.858;25.974;2022-09-27T02:42:36;99964.88;;;21.72;57.41
42169;BME280;27838;43.858;25.974;2022-09-27T02:45:03;99963.28;;;21.69;57.37
42169;BME280;27838;43.858;25.974;2022-09-27T03:01:51;99935.66;;;21.57;57.99
42169;BME280;27838;43.858;25.974;2022-09-27T03:05:01;99946.34;;;21.56;57.92
42169;BME280;27838;43.858;25.974;2022-09-27T03:07:28;99952.69;;;21.53;57.93
42169;BME280;27838;43.858;25.974;2022-09-27T03:09:56;99939.34;;;21.55;58.03
42169;BME280;27838;43.858;25.974;2022-09-27T03:12:23;99951.75;;;21.54;58.05
42169;BME280;27838;43.858;25.974;2022-09-27T03:14:54;99949.16;;;21.53;58.06
42169;BME280;27838;43.858;25.974;2022-09-27T03:17:22;99952.88;;;21.50;58.18
42169;BME280;27838;43.858;25.974;2022-09-27T03:19:49;99960.66;;;21.53;58.38
42169;BME280;27838;43.858;25.974;2022-09-27T03:22:15;99959.03;;;21.50;58.36
42169;BME280;27838;43.858;25.974;2022-09-27T03:24:42;99958.00;;;21.53;58.33
42169;BME280;27838;43.858;25.974;2022-09-27T03:27:10;99953.63;;;21.52;58.45
42169;BME280;27838;43.858;25.974;2022-09-27T03:29:37;99950.06;;;21.53;58.61
42169;BME280;27838;43.858;25.974;2022-09-27T03:32:03;99950.06;;;21.53;58.31
42169;BME280;27838;43.858;25.974;2022-09-27T03:34:30;99947.41;;;21.53;58.42
42169;BME280;27838;43.858;25.974;2022-09-27T03:36:57;99936.78;;;21.53;58.71
42169;BME280;27838;43.858;25.974;2022-09-27T03:39:23;99935.91;;;21.53;58.41
42169;BME280;27838;43.858;25.974;2022-09-27T03:41:50;99924.84;;;21.46;58.29
42169;BME280;27838;43.858;25.974;2022-09-27T03:44:17;99933.47;;;21.49;58.11
42169;BME280;27838;43.858;25.974;2022-09-27T03:46:44;99940.38;;;21.52;58.08
42169;BME280;27838;43.858;25.974;2022-09-27T03:49:10;99947.75;;;21.47;58.11
42169;BME280;27838;43.858;25.974;2022-09-27T03:51:37;99955.06;;;21.42;58.48
42169;BME280;27838;43.858;25.974;2022-09-27T03:54:03;99948.41;;;21.35;58.68
42169;BME280;27838;43.858;25.974;2022-09-27T03:56:30;99928.84;;;21.37;58.32
42169;BME280;27838;43.858;25.974;2022-09-27T03:58:57;99921.66;;;21.39;58.24
42169;BME280;27838;43.858;25.974;2022-09-27T04:01:24;99927.78;;;21.40;57.92
42169;BME280;27838;43.858;25.974;2022-09-27T04:03:52;99935.91;;;21.37;58.09
42169;BME280;27838;43.858;25.974;2022-09-27T04:06:18;99939.34;;;21.39;57.86
42169;BME280;27838;43.858;25.974;2022-09-27T04:08:47;99938.47;;;21.38;58.01
42169;BME280;27838;43.858;25.974;2022-09-27T04:11:13;99935.00;;;21.38;58.10
42169;BME280;27838;43.858;25.974;2022-09-27T04:13:40;99946.53;;;21.37;58.22
42169;BME280;27838;43.858;25.974;2022-09-27T04:16:08;99943.97;;;21.35;57.89
42169;BME280;27838;43.858;25.974;2022-09-27T04:18:35;99940.47;;;21.35;58.13
42169;BME280;27838;43.858;25.974;2022-09-27T04:21:02;99929.94;;;21.33;58.34
42169;BME280;27838;43.858;25.974;2022-09-27T04:23:29;99929.19;;;21.31;58.35
42169;BME280;27838;43.858;25.974;2022-09-27T04:25:55;99927.38;;;21.31;58.48
42169;BME280;27838;43.858;25.974;2022-09-27T04:28:22;99936.28;;;21.30;58.97
42169;BME280;27838;43.858;25.974;2022-09-27T04:30:48;99923.97;;;21.29;59.05
42169;BME280;27838;43.858;25.974;2022-09-27T04:33:15;99911.56;;;21.30;59.02
42169;BME280;27838;43.858;25.974;2022-09-27T04:35:42;99911.47;;;21.31;58.88
42169;BME280;27838;43.858;25.974;2022-09-27T04:38:26;99913.19;;;21.33;58.93
42169;BME280;27838;43.858;25.974;2022-09-27T04:40:53;99910.53;;;21.33;59.25
42169;BME280;27838;43.858;25.974;2022-09-27T04:43:20;99906.97;;;21.34;59.20
42169;BME280;27838;43.858;25.974;2022-09-27T04:45:46;99906.16;;;21.31;59.66
42169;BME280;27838;43.858;25.974;2022-09-27T04:48:13;99899.34;;;21.27;59.86
42169;BME280;27838;43.858;25.974;2022-09-27T04:50:39;99897.53;;;21.28;59.85
42169;BME280;27838;43.858;25.974;2022-09-27T04:53:06;99883.63;;;21.24;60.56
42169;BME280;27838;43.858;25.974;2022-09-27T04:55:33;99874.16;;;21.20;60.96
42169;BME280;27838;43.858;25.974;2022-09-27T04:57:59;99857.59;;;21.17;61.43
42169;BME280;27838;43.858;25.974;2022-09-27T05:00:26;99851.84;;;21.08;62.05
42169;BME280;27838;43.858;25.974;2022-09-27T05:02:54;99849.84;;;20.98;62.60
42169;BME280;27838;43.858;25.974;2022-09-27T05:05:21;99852.25;;;20.86;62.94
42169;BME280;27838;43.858;25.974;2022-09-27T05:07:47;99858.63;;;20.82;62.88
42169;BME280;27838;43.858;25.974;2022-09-27T05:10:14;99859.41;;;20.84;63.10
42169;BME280;27838;43.858;25.974;2022-09-27T05:12:41;99858.47;;;20.85;63.03
42169;BME280;27838;43.858;25.974;2022-09-27T05:15:10;99847.13;;;20.83;62.83
42169;BME280;27838;43.858;25.974;2022-09-27T05:17:37;99852.41;;;20.83;63.00
42169;BME280;27838;43.858;25.974;2022-09-27T05:20:09;99857.19;;;20.92;62.71
42169;BME280;27838;43.858;25.974;2022-09-27T05:22:36;99853.78;;;20.90;62.75
42169;BME280;27838;43.858;25.974;2022-09-27T05:25:05;99865.88;;;20.94;62.86
42169;BME280;27838;43.858;25.974;2022-09-27T05:27:31;99854.38;;;20.96;63.12
42169;BME280;27838;43.858;25.974;2022-09-27T05:29:59;99863.16;;;20.96;63.19
42169;BME280;27838;43.858;25.974;2022-09-27T05:32:26;99864.69;;;21.00;63.04
42169;BME280;27838;43.858;25.974;2022-09-27T05:34:54;99851.44;;;21.00;62.94
42169;BME280;27838;43.858;25.974;2022-09-27T05:37:20;99854.19;;;20.99;63.29
42169;BME280;27838;43.858;25.974;2022-09-27T05:39:50;99868.97;;;21.03;63.60
42169;BME280;27838;43.858;25.974;2022-09-27T05:42:20;99868.97;;;21.03;63.59
42169;BME280;27838;43.858;25.974;2022-09-27T05:44:51;99868.13;;;21.02;63.63
42169;BME280;27838;43.858;25.974;2022-09-27T05:47:18;99868.88;;;21.04;63.60
42169;BME280;27838;43.858;25.974;2022-09-27T05:49:45;99870.84;;;21.01;64.07
42169;BME280;27838;43.858;25.974;2022-09-27T05:52:11;99860.50;;;20.96;64.70
42169;BME280;27838;43.858;25.974;2022-09-27T05:54:38;99863.25;;;20.94;64.98
42169;BME280;27838;43.858;25.974;2022-09-27T05:57:05;99881.53;;;20.99;65.45
42169;BME280;27838;43.858;25.974;2022-09-27T05:59:32;99869.13;;;21.00;65.40
42169;BME280;27838;43.858;25.974;2022-09-27T06:01:59;99878.03;;;20.99;65.19
42169;BME280;27838;43.858;25.974;2022-09-27T06:04:26;99872.75;;;20.99;65.67
42169;BME280;27838;43.858;25.974;2022-09-27T06:06:52;99875.19;;;21.02;66.02
42169;BME280;27838;43.858;25.974;2022-09-27T06:09:19;99869.91;;;21.02;66.17
42169;BME280;27838;43.858;25.974;2022-09-27T06:11:45;99870.94;;;20.99;66.28
42169;BME280;27838;43.858;25.974;2022-09-27T06:14:12;99858.91;;;20.93;66.35
42169;BME280;27838;43.858;25.974;2022-09-27T06:16:39;99865.72;;;20.98;66.14
42169;BME280;27838;43.858;25.974;2022-09-27T06:19:06;99874.44;;;21.00;65.89
42169;BME280;27838;43.858;25.974;2022-09-27T06:21:33;99883.34;;;20.99;65.82
42169;BME280;27838;43.858;25.974;2022-09-27T06:24:00;99872.75;;;20.99;65.89
42169;BME280;27838;43.858;25.974;2022-09-27T06:26:27;99868.38;;;20.98;65.68
42169;BME280;27838;43.858;25.974;2022-09-27T06:28:54;99885.13;;;20.98;66.02
42169;BME280;27838;43.858;25.974;2022-09-27T06:31:21;99881.78;;;20.94;66.15
42169;BME280;27838;43.858;25.974;2022-09-27T06:33:48;99881.63;;;20.98;66.25
42169;BME280;27838;43.858;25.974;2022-09-27T06:36:15;99884.94;;;21.01;65.63
42169;BME280;27838;43.858;25.974;2022-09-27T06:38:42;99881.28;;;21.04;65.73
42169;BME280;27838;43.858;25.974;2022-09-27T06:41:10;99876.16;;;21.01;65.42
42169;BME280;27838;43.858;25.974;2022-09-27T06:43:37;99886.75;;;21.01;66.10
42169;BME280;27838;43.858;25.974;2022-09-27T06:46:04;99881.63;;;20.98;65.94
42169;BME280;27838;43.858;25.974;2022-09-27T06:48:31;99874.59;;;20.97;66.34
42169;BME280;27838;43.858;25.974;2022-09-27T06:51:00;99862.31;;;20.96;66.15
42169;BME280;27838;43.858;25.974;2022-09-27T06:53:27;99863.06;;;20.98;66.10
42169;BME280;27838;43.858;25.974;2022-09-27T06:55:57;99856.84;;;20.99;66.33
42169;BME280;27838;43.858;25.974;2022-09-27T06:58:24;99845.66;;;20.93;66.07
42169;BME280;27838;43.858;25.974;2022-09-27T07:01:08;99852.41;;;20.99;66.24
42169;BME280;27838;43.858;25.974;2022-09-27T07:03:35;99853.16;;;21.01;66.21
42169;BME280;27838;43.858;25.974;2022-09-27T07:06:08;99856.66;;;21.02;66.29
42169;BME280;27838;43.858;25.974;2022-09-27T07:08:38;99868.59;;;21.09;66.04
42169;BME280;27838;43.858;25.974;2022-09-27T07:11:06;99869.97;;;21.16;66.03
42169;BME280;27838;43.858;25.974;2022-09-27T07:13:33;99860.41;;;21.13;65.87
42169;BME280;27838;43.858;25.974;2022-09-27T07:16:04;99864.41;;;21.21;66.12
42169;BME280;27838;43.858;25.974;2022-09-27T07:18:31;99862.50;;;21.23;65.90
42169;BME280;27838;43.858;25.974;2022-09-27T07:21:01;99858.94;;;21.24;65.86
42169;BME280;27838;43.858;25.974;2022-09-27T07:23:27;99865.66;;;21.29;65.65
42169;BME280;27838;43.858;25.974;2022-09-27T07:25:54;99857.53;;;21.33;65.81
42169;BME280;27838;43.858;25.974;2022-09-27T07:28:21;99852.91;;;21.36;65.27
42169;BME280;27838;43.858;25.974;2022-09-27T07:30:48;99859.81;;;21.39;64.62
42169;BME280;27838;43.858;25.974;2022-09-27T07:33:14;99864.94;;;21.42;64.68
42169;BME280;27838;43.858;25.974;2022-09-27T07:35:42;99851.69;;;21.42;64.48
42169;BME280;27838;43.858;25.974;2022-09-27T07:38:10;99837.25;;;21.47;64.55
42169;BME280;27838;43.858;25.974;2022-09-27T07:40:39;99834.31;;;21.52;64.70
42169;BME280;27838;43.858;25.974;2022-09-27T07:43:06;99832.44;;;21.54;64.73
42169;BME280;27838;43.858;25.974;2022-09-27T07:45:34;99825.22;;;21.56;64.81
42169;BME280;27838;43.858;25.974;2022-09-27T07:48:06;99822.59;;;21.56;64.32
42169;BME280;27838;43.858;25.974;2022-09-27T07:50:33;99821.81;;;21.54;64.29
42169;BME280;27838;43.858;25.974;2022-09-27T07:53:02;99824.13;;;21.60;64.25
42169;BME280;27838;43.858;25.974;2022-09-27T07:55:30;99817.69;;;21.64;64.24
42169;BME280;27838;43.858;25.974;2022-09-27T07:58:05;99830.75;;;21.67;64.01
42169;BME280;27838;43.858;25.974;2022-09-27T08:00:33;99827.06;;;21.70;64.14
42169;BME280;27838;43.858;25.974;2022-09-27T08:03:11;99829.44;;;21.75;64.07
42169;BME280;27838;43.858;25.974;2022-09-27T08:05:41;99830.28;;;21.75;64.43
42169;BME280;27838;43.858;25.974;2022-09-27T08:08:08;99837.22;;;21.78;64.71
42169;BME280;27838;43.858;25.974;2022-09-27T08:10:34;99832.94;;;21.75;65.15
42169;BME280;27838;43.858;25.974;2022-09-27T08:13:03;99850.47;;;21.78;65.04
42169;BME280;27838;43.858;25.974;2022-09-27T08:15:31;99870.28;;;21.86;64.69
42169;BME280;27838;43.858;25.974;2022-09-27T08:18:06;99873.97;;;21.84;65.47
42169;BME280;27838;43.858;25.974;2022-09-27T08:20:34;99881.16;;;21.82;65.94
42169;BME280;27838;43.858;25.974;2022-09-27T08:23:05;99879.75;;;21.76;66.54
42169;BME280;27838;43.858;25.974;2022-09-27T08:25:33;99875.84;;;21.67;66.69
42169;BME280;27838;43.858;25.974;2022-09-27T08:28:02;99892.97;;;21.62;66.92
42169;BME280;27838;43.858;25.974;2022-09-27T08:30:30;99903.94;;;21.56;67.28
42169;BME280;27838;43.858;25.974;2022-09-27T08:32:58;99891.13;;;21.48;67.50
42169;BME280;27838;43.858;25.974;2022-09-27T08:35:25;99883.50;;;21.42;67.48
42169;BME280;27838;43.858;25.974;2022-09-27T08:37:58;99879.16;;;21.41;67.74
42169;BME280;27838;43.858;25.974;2022-09-27T08:40:52;99882.56;;;21.43;67.57
42169;BME280;27838;43.858;25.974;2022-09-27T08:49:05;99886.75;;;21.47;67.23
42169;BME280;27838;43.858;25.974;2022-09-27T08:51:35;99869.94;;;21.48;67.26
42169;BME280;27838;43.858;25.974;2022-09-27T08:54:13;99879.41;;;21.52;67.10
42169;BME280;27838;43.858;25.974;2022-09-27T08:56:43;99881.69;;;21.58;67.00
42169;BME280;27838;43.858;25.974;2022-09-27T09:01:45;99851.56;;;21.59;66.92
42169;BME280;27838;43.858;25.974;2022-09-27T09:04:21;99853.28;;;21.60;66.93
42169;BME280;27838;43.858;25.974;2022-09-27T09:07:19;99842.50;;;21.63;66.84
42169;BME280;27838;43.858;25.974;2022-09-27T09:15:49;99831.91;;;21.63;67.05
42169;BME280;27838;43.858;25.974;2022-09-27T09:21:39;99814.38;;;21.61;66.88
42169;BME280;27838;43.858;25.974;2022-09-27T09:32:05;99818.81;;;21.60;66.46
42169;BME280;27838;43.858;25.974;2022-09-27T09:34:39;99817.84;;;21.61;66.45
42169;BME280;27838;43.858;25.974;2022-09-27T09:37:17;99804.59;;;21.61;66.25
42169;BME280;27838;43.858;25.974;2022-09-27T09:39:50;99798.38;;;21.62;66.34
42169;BME280;27838;43.858;25.974;2022-09-27T09:45:02;99805.75;;;21.72;66.44
42169;BME280;27838;43.858;25.974;2022-09-27T09:50:39;99803.59;;;21.78;66.04
42169;BME280;27838;43.858;25.974;2022-09-27T09:53:18;99806.97;;;21.80;66.22
42169;BME280;27838;43.858;25.974;2022-09-27T09:56:07;99796.59;;;21.77;66.35
42169;BME280;27838;43.858;25.974;2022-09-27T09:58:40;99819.41;;;21.80;66.11
42169;BME280;27838;43.858;25.974;2022-09-27T10:01:17;99795.53;;;21.80;66.14
42169;BME280;27838;43.858;25.974;2022-09-27T10:03:46;99800.47;;;21.86;66.27
42169;BME280;27838;43.858;25.974;2022-09-27T10:06:15;99811.63;;;21.91;65.90
42169;BME280;27838;43.858;25.974;2022-09-27T10:08:43;99809.19;;;21.88;65.22
42169;BME280;27838;43.858;25.974;2022-09-27T10:11:21;99795.91;;;21.88;65.00
42169;BME280;27838;43.858;25.974;2022-09-27T10:13:50;99775.53;;;21.88;65.41
42169;BME280;27838;43.858;25.974;2022-09-27T10:16:19;99781.59;;;21.91;65.37
42169;BME280;27838;43.858;25.974;2022-09-27T10:18:46;99781.31;;;21.95;65.06
42169;BME280;27838;43.858;25.974;2022-09-27T10:21:28;99776.97;;;21.94;65.33
42169;BME280;27838;43.858;25.974;2022-09-27T10:24:06;99781.91;;;22.00;65.60
42169;BME280;27838;43.858;25.974;2022-09-27T10:26:35;99758.09;;;21.99;66.05
42169;BME280;27838;43.858;25.974;2022-09-27T10:29:28;99771.38;;;21.99;66.28
42169;BME280;27838;43.858;25.974;2022-09-27T10:31:55;99762.75;;;21.95;66.26
42169;BME280;27838;43.858;25.974;2022-09-27T10:34:37;99753.81;;;21.96;66.42
42169;BME280;27838;43.858;25.974;2022-09-27T10:39:47;99758.00;;;22.00;66.09
42169;BME280;27838;43.858;25.974;2022-09-27T10:42:33;99763.13;;;22.03;65.72
42169;BME280;27838;43.858;25.974;2022-09-27T10:45:29;99760.34;;;22.05;65.54
42169;BME280;27838;43.858;25.974;2022-09-27T10:47:57;99734.69;;;22.05;65.53
42169;BME280;27838;43.858;25.974;2022-09-27T10:50:27;99737.63;;;22.01;65.45
42169;BME280;27838;43.858;25.974;2022-09-27T10:53:13;99733.16;;;22.01;65.57
42169;BME280;27838;43.858;25.974;2022-09-27T10:55:41;99724.19;;;22.04;65.39
42169;BME280;27838;43.858;25.974;2022-09-27T10:58:17;99747.66;;;22.10;64.99
42169;BME280;27838;43.858;25.974;2022-09-27T11:00:54;99759.88;;;22.13;64.58
42169;BME280;27838;43.858;25.974;2022-09-27T11:03:21;99757.81;;;22.18;64.32
42169;BME280;27838;43.858;25.974;2022-09-27T11:05:49;99766.50;;;22.20;64.35
42169;BME280;27838;43.858;25.974;2022-09-27T11:13:32;99750.59;;;22.20;64.51
42169;BME280;27838;43.858;25.974;2022-09-27T11:19:13;99746.53;;;22.14;64.63
42169;BME280;27838;43.858;25.974;2022-09-27T11:25:33;99744.53;;;22.18;64.70
42169;BME280;27838;43.858;25.974;2022-09-27T11:36:51;99718.75;;;22.20;64.31
42169;BME280;27838;43.858;25.974;2022-09-27T11:39:43;99725.53;;;22.24;63.97
42169;BME280;27838;43.858;25.974;2022-09-27T11:45:28;99727.25;;;22.25;64.18
42169;BME280;27838;43.858;25.974;2022-09-27T11:48:13;99712.38;;;22.22;64.15
42169;BME280;27838;43.858;25.974;2022-09-27T11:50:59;99720.81;;;22.29;64.01
42169;BME280;27838;43.858;25.974;2022-09-27T11:53:39;99726.78;;;22.33;63.96
42169;BME280;27838;43.858;25.974;2022-09-27T12:05:25;99724.41;;;22.42;63.30
42169;BME280;27838;43.858;25.974;2022-09-27T12:10:39;99724.41;;;22.42;63.26
42169;BME280;27838;43.858;25.974;2022-09-27T12:13:11;99711.41;;;22.38;63.24
42169;BME280;27838;43.858;25.974;2022-09-27T12:15:42;99715.69;;;22.40;63.11
42169;BME280;27838;43.858;25.974;2022-09-27T12:18:28;99721.75;;;22.42;62.95
42169;BME280;27838;43.858;25.974;2022-09-27T12:20:59;99719.84;;;22.44;62.79
42169;BME280;27838;43.858;25.974;2022-09-27T12:24:02;99715.25;;;22.47;62.53
42169;BME280;27838;43.858;25.974;2022-09-27T12:26:49;99721.44;;;22.47;62.44
42169;BME280;27838;43.858;25.974;2022-09-27T12:29:32;99722.28;;;22.48;62.39
42169;BME280;27838;43.858;25.974;2022-09-27T12:32:21;99722.38;;;22.46;62.33
42169;BME280;27838;43.858;25.974;2022-09-27T12:35:28;99718.66;;;22.49;62.46
42169;BME280;27838;43.858;25.974;2022-09-27T12:38:10;99713.34;;;22.49;62.36
42169;BME280;27838;43.858;25.974;2022-09-27T12:40:40;99706.34;;;22.48;62.45
42169;BME280;27838;43.858;25.974;2022-09-27T12:43:17;99713.16;;;22.52;62.74
42169;BME280;27838;43.858;25.974;2022-09-27T12:51:38;99691.72;;;22.55;62.61
42169;BME280;27838;43.858;25.974;2022-09-27T13:11:24;99681.75;;;22.58;60.22
42169;BME280;27838;43.858;25.974;2022-09-27T13:13:55;99672.19;;;22.56;60.13
42169;BME280;27838;43.858;25.974;2022-09-27T13:16:23;99664.22;;;22.56;60.77
42169;BME280;27838;43.858;25.974;2022-09-27T13:18:56;99647.31;;;22.57;61.79
42169;BME280;27838;43.858;25.974;2022-09-27T13:24:39;99644.66;;;22.57;62.23
42169;BME280;27838;43.858;25.974;2022-09-27T13:29:48;99633.59;;;22.50;62.88
42169;BME280;27838;43.858;25.974;2022-09-27T13:32:22;99622.69;;;22.55;62.58
42169;BME280;27838;43.858;25.974;2022-09-27T13:35:29;99628.75;;;22.57;62.44
42169;BME280;27838;43.858;25.974;2022-09-27T13:37:59;99635.75;;;22.58;63.54
42169;BME280;27838;43.858;25.974;2022-09-27T13:40:44;99642.75;;;22.59;63.78
42169;BME280;27838;43.858;25.974;2022-09-27T13:48:20;99650.63;;;22.60;64.86
42169;BME280;27838;43.858;25.974;2022-09-27T13:53:33;99638.19;;;22.61;64.94
42169;BME280;27838;43.858;25.974;2022-09-27T13:56:02;99645.00;;;22.65;64.97
42169;BME280;27838;43.858;25.974;2022-09-27T14:00:59;99643.84;;;22.69;64.47
42169;BME280;27838;43.858;25.974;2022-09-27T14:03:51;99638.44;;;22.71;64.01
42169;BME280;27838;43.858;25.974;2022-09-27T14:06:23;99634.94;;;22.70;63.54
42169;BME280;27838;43.858;25.974;2022-09-27T14:08:53;99629.41;;;22.73;63.44
42169;BME280;27838;43.858;25.974;2022-09-27T14:11:33;99645.88;;;22.78;63.47
42169;BME280;27838;43.858;25.974;2022-09-27T14:14:02;99649.50;;;22.77;63.19
42169;BME280;27838;43.858;25.974;2022-09-27T14:16:34;99636.22;;;22.77;62.95
42169;BME280;27838;43.858;25.974;2022-09-27T14:19:02;99622.09;;;22.77;63.08
42169;BME280;27838;43.858;25.974;2022-09-27T14:21:32;99620.19;;;22.79;63.26
42169;BME280;27838;43.858;25.974;2022-09-27T14:24:27;99629.00;;;22.79;63.26
42169;BME280;27838;43.858;25.974;2022-09-27T14:27:14;99641.63;;;22.76;62.27
42169;BME280;27838;43.858;25.974;2022-09-27T14:29:54;99626.63;;;22.75;62.32
42169;BME280;27838;43.858;25.974;2022-09-27T14:32:29;99615.69;;;22.79;62.59
42169;BME280;27838;43.858;25.974;2022-09-27T14:35:11;99619.19;;;22.80;62.37
42169;BME280;27838;43.858;25.974;2022-09-27T14:37:53;99629.72;;;22.81;62.22
42169;BME280;27838;43.858;25.974;2022-09-27T14:40:21;99622.41;;;22.85;62.29
42169;BME280;27838;43.858;25.974;2022-09-27T14:42:52;99616.03;;;22.88;62.23
42169;BME280;27838;43.858;25.974;2022-09-27T14:45:34;99601.88;;;22.87;62.16
42169;BME280;27838;43.858;25.974;2022-09-27T14:48:16;99599.22;;;22.87;62.42
42169;BME280;27838;43.858;25.974;2022-09-27T14:50:59;99597.44;;;22.88;62.67
42169;BME280;27838;43.858;25.974;2022-09-27T14:53:33;99599.34;;;22.86;62.54
42169;BME280;27838;43.858;25.974;2022-09-27T14:56:01;99596.81;;;22.84;62.76
42169;BME280;27838;43.858;25.974;2022-09-27T14:58:28;99598.47;;;22.85;62.97
42169;BME280;27838;43.858;25.974;2022-09-27T15:00:55;99604.66;;;22.86;63.10
42169;BME280;27838;43.858;25.974;2022-09-27T15:03:28;99611.03;;;22.83;63.64
42169;BME280;27838;43.858;25.974;2022-09-27T15:05:56;99613.59;;;22.85;63.71
42169;BME280;27838;43.858;25.974;2022-09-27T15:08:26;99616.34;;;22.83;63.68
42169;BME280;27838;43.858;25.974;2022-09-27T15:10:57;99615.28;;;22.86;63.64
42169;BME280;27838;43.858;25.974;2022-09-27T15:13:24;99617.94;;;22.86;63.65
42169;BME280;27838;43.858;25.974;2022-09-27T15:15:52;99616.53;;;22.80;64.03
42169;BME280;27838;43.858;25.974;2022-09-27T15:20:58;99623.13;;;22.74;64.63
42169;BME280;27838;43.858;25.974;2022-09-27T15:23:33;99612.72;;;22.71;64.84
42169;BME280;27838;43.858;25.974;2022-09-27T15:26:15;99623.56;;;22.68;64.90
42169;BME280;27838;43.858;25.974;2022-09-27T15:28:44;99625.44;;;22.66;64.86
42169;BME280;27838;43.858;25.974;2022-09-27T15:31:12;99614.19;;;22.62;65.09
42169;BME280;27838;43.858;25.974;2022-09-27T15:33:40;99617.63;;;22.65;65.38
42169;BME280;27838;43.858;25.974;2022-09-27T15:36:09;99624.91;;;22.61;65.42
42169;BME280;27838;43.858;25.974;2022-09-27T15:38:41;99621.22;;;22.63;65.16
42169;BME280;27838;43.858;25.974;2022-09-27T15:41:17;99620.38;;;22.63;65.42
42169;BME280;27838;43.858;25.974;2022-09-27T15:43:47;99625.69;;;22.63;65.09
42169;BME280;27838;43.858;25.974;2022-09-27T15:46:28;99633.75;;;22.61;65.07
42169;BME280;27838;43.858;25.974;2022-09-27T15:51:50;99658.59;;;22.60;65.04
42169;BME280;27838;43.858;25.974;2022-09-27T15:54:21;99642.75;;;22.59;65.44
42169;BME280;27838;43.858;25.974;2022-09-27T15:56:50;99628.63;;;22.58;65.40
42169;BME280;27838;43.858;25.974;2022-09-27T15:59:19;99626.19;;;22.55;65.72
42169;BME280;27838;43.858;25.974;2022-09-27T16:01:47;99623.72;;;22.52;65.78